sensor_id;sensor_type;location;lat;lon;timestamp;P1;durP1;ratioP1;P2;durP2;ratioP2
6549;SDS011;15142;48.888;9.134;2023-07-29T00:00:17;1.63;;;1.53;;
6549;SDS011;15142;48.888;9.134;2023-07-29T00:02:45;1.97;;;1.87;;
6549;SDS011;15142;48.888;9.134;2023-07-29T00:05:16;8.53;;;2.47;;
6549;SDS011;15142;48.888;9.134;2023-07-29T00:07:45;2.57;;;2.10;;
6549;SDS011;15142;48.888;9.134;2023-07-29T00:10:14;2.83;;;1.70;;
6549;SDS011;15142;48.888;9.134;2023-07-29T00:12:42;2.10;;;2.00;;
6549;SDS011;15142;48.888;9.134;2023-07-29T00:15:12;3.13;;;1.93;;
6549;SDS011;15142;48.888;9.134;2023-07-29T00:17:40;3.43;;;1.90;;
6549;SDS011;15142;48.888;9.134;2023-07-29T00:20:09;6.10;;;2.27;;
6549;SDS011;15142;48.888;9.134;2023-07-29T00:22:40;6.43;;;2.37;;
6549;SDS011;15142;48.888;9.134;2023-07-29T00:25:09;5.67;;;2.17;;
6549;SDS011;15142;48.888;9.134;2023-07-29T00:27:37;5.93;;;2.67;;
6549;SDS011;15142;48.888;9.134;2023-07-29T00:30:06;3.47;;;3.13;;
6549;SDS011;15142;48.888;9.134;2023-07-29T00:32:36;7.50;;;5.70;;
6549;SDS011;15142;48.888;9.134;2023-07-29T00:35:05;8.63;;;5.10;;
6549;SDS011;15142;48.888;9.134;2023-07-29T00:37:36;2.93;;;2.73;;
6549;SDS011;15142;48.888;9.134;2023-07-29T00:40:13;11.23;;;2.53;;
6549;SDS011;15142;48.888;9.134;2023-07-29T00:42:44;7.57;;;2.70;;
6549;SDS011;15142;48.888;9.134;2023-07-29T00:45:12;8.23;;;2.13;;
6549;SDS011;15142;48.888;9.134;2023-07-29T00:47:41;2.80;;;2.03;;
6549;SDS011;15142;48.888;9.134;2023-07-29T00:50:11;4.30;;;2.33;;
6549;SDS011;15142;48.888;9.134;2023-07-29T00:52:40;2.67;;;2.50;;
6549;SDS011;15142;48.888;9.134;2023-07-29T00:55:11;3.70;;;2.73;;
6549;SDS011;15142;48.888;9.134;2023-07-29T00:57:41;2.37;;;2.27;;
6549;SDS011;15142;48.888;9.134;2023-07-29T01:00:25;4.20;;;2.57;;
6549;SDS011;15142;48.888;9.134;2023-07-29T01:02:53;6.63;;;4.00;;
6549;SDS011;15142;48.888;9.134;2023-07-29T01:05:24;3.73;;;2.67;;
6549;SDS011;15142;48.888;9.134;2023-07-29T01:07:59;2.90;;;2.70;;
6549;SDS011;15142;48.888;9.134;2023-07-29T01:10:43;4.73;;;2.90;;
6549;SDS011;15142;48.888;9.134;2023-07-29T01:13:17;2.90;;;2.70;;
6549;SDS011;15142;48.888;9.134;2023-07-29T01:15:52;5.40;;;2.47;;
6549;SDS011;15142;48.888;9.134;2023-07-29T01:18:26;2.57;;;2.37;;
6549;SDS011;15142;48.888;9.134;2023-07-29T01:20:58;4.10;;;3.00;;
6549;SDS011;15142;48.888;9.134;2023-07-29T01:23:31;6.63;;;3.07;;
6549;SDS011;15142;48.888;9.134;2023-07-29T01:26:01;5.47;;;2.93;;
6549;SDS011;15142;48.888;9.134;2023-07-29T01:28:33;4.90;;;3.17;;
6549;SDS011;15142;48.888;9.134;2023-07-29T01:31:02;6.43;;;3.40;;
6549;SDS011;15142;48.888;9.134;2023-07-29T01:33:39;5.77;;;3.30;;
6549;SDS011;15142;48.888;9.134;2023-07-29T01:36:18;3.70;;;3.20;;
6549;SDS011;15142;48.888;9.134;2023-07-29T01:38:53;6.73;;;3.00;;
6549;SDS011;15142;48.888;9.134;2023-07-29T01:41:24;3.13;;;2.83;;
6549;SDS011;15142;48.888;9.134;2023-07-29T01:43:55;4.23;;;2.70;;
6549;SDS011;15142;48.888;9.134;2023-07-29T01:46:25;3.57;;;2.80;;
6549;SDS011;15142;48.888;9.134;2023-07-29T01:48:54;5.43;;;2.60;;
6549;SDS011;15142;48.888;9.134;2023-07-29T01:51:22;2.90;;;2.70;;
6549;SDS011;15142;48.888;9.134;2023-07-29T01:53:54;2.20;;;2.10;;
6549;SDS011;15142;48.888;9.134;2023-07-29T01:56:24;4.43;;;2.13;;
6549;SDS011;15142;48.888;9.134;2023-07-29T01:58:55;3.20;;;2.90;;
6549;SDS011;15142;48.888;9.134;2023-07-29T02:01:26;2.90;;;2.70;;
6549;SDS011;15142;48.888;9.134;2023-07-29T02:03:56;6.70;;;3.00;;
6549;SDS011;15142;48.888;9.134;2023-07-29T02:06:25;3.07;;;2.77;;
6549;SDS011;15142;48.888;9.134;2023-07-29T02:08:57;5.27;;;3.13;;
6549;SDS011;15142;48.888;9.134;2023-07-29T02:11:26;10.03;;;2.70;;
6549;SDS011;15142;48.888;9.134;2023-07-29T02:13:55;3.77;;;2.63;;
6549;SDS011;15142;48.888;9.134;2023-07-29T02:16:24;5.47;;;3.40;;
6549;SDS011;15142;48.888;9.134;2023-07-29T02:18:53;7.73;;;2.80;;
6549;SDS011;15142;48.888;9.134;2023-07-29T02:21:22;4.93;;;3.03;;
6549;SDS011;15142;48.888;9.134;2023-07-29T02:23:51;4.57;;;3.00;;
6549;SDS011;15142;48.888;9.134;2023-07-29T02:26:22;2.57;;;2.33;;
6549;SDS011;15142;48.888;9.134;2023-07-29T02:28:51;4.33;;;2.87;;
6549;SDS011;15142;48.888;9.134;2023-07-29T02:31:21;2.40;;;2.00;;
6549;SDS011;15142;48.888;9.134;2023-07-29T02:33:51;6.93;;;3.00;;
6549;SDS011;15142;48.888;9.134;2023-07-29T02:36:21;3.23;;;2.37;;
6549;SDS011;15142;48.888;9.134;2023-07-29T02:38:50;3.00;;;2.73;;
6549;SDS011;15142;48.888;9.134;2023-07-29T02:41:21;3.83;;;3.20;;
6549;SDS011;15142;48.888;9.134;2023-07-29T02:43:50;4.40;;;2.10;;
6549;SDS011;15142;48.888;9.134;2023-07-29T02:46:19;4.40;;;2.20;;
6549;SDS011;15142;48.888;9.134;2023-07-29T02:48:49;3.80;;;1.97;;
6549;SDS011;15142;48.888;9.134;2023-07-29T02:51:18;4.17;;;2.40;;
6549;SDS011;15142;48.888;9.134;2023-07-29T02:53:47;4.40;;;2.30;;
6549;SDS011;15142;48.888;9.134;2023-07-29T02:56:15;3.00;;;2.73;;
6549;SDS011;15142;48.888;9.134;2023-07-29T02:58:47;6.13;;;2.57;;
6549;SDS011;15142;48.888;9.134;2023-07-29T03:01:17;2.23;;;2.13;;
6549;SDS011;15142;48.888;9.134;2023-07-29T03:03:46;12.13;;;2.13;;
6549;SDS011;15142;48.888;9.134;2023-07-29T03:06:15;8.80;;;2.60;;
6549;SDS011;15142;48.888;9.134;2023-07-29T03:08:44;2.33;;;2.17;;
6549;SDS011;15142;48.888;9.134;2023-07-29T03:11:14;3.40;;;2.20;;
6549;SDS011;15142;48.888;9.134;2023-07-29T03:13:47;7.23;;;2.50;;
6549;SDS011;15142;48.888;9.134;2023-07-29T03:16:16;8.33;;;2.40;;
6549;SDS011;15142;48.888;9.134;2023-07-29T03:18:51;3.00;;;2.30;;
6549;SDS011;15142;48.888;9.134;2023-07-29T03:21:20;3.40;;;2.10;;
6549;SDS011;15142;48.888;9.134;2023-07-29T03:23:49;4.60;;;2.40;;
6549;SDS011;15142;48.888;9.134;2023-07-29T03:26:17;4.37;;;1.97;;
6549;SDS011;15142;48.888;9.134;2023-07-29T03:28:48;3.70;;;1.73;;
6549;SDS011;15142;48.888;9.134;2023-07-29T03:31:17;4.70;;;2.30;;
6549;SDS011;15142;48.888;9.134;2023-07-29T03:33:46;5.80;;;2.50;;
6549;SDS011;15142;48.888;9.134;2023-07-29T03:36:15;1.90;;;1.57;;
6549;SDS011;15142;48.888;9.134;2023-07-29T03:38:44;2.13;;;2.00;;
6549;SDS011;15142;48.888;9.134;2023-07-29T03:41:13;15.43;;;2.10;;
6549;SDS011;15142;48.888;9.134;2023-07-29T03:43:41;2.50;;;2.00;;
6549;SDS011;15142;48.888;9.134;2023-07-29T03:46:12;2.30;;;2.13;;
6549;SDS011;15142;48.888;9.134;2023-07-29T03:48:45;2.23;;;2.13;;
6549;SDS011;15142;48.888;9.134;2023-07-29T03:51:14;2.17;;;1.97;;
6549;SDS011;15142;48.888;9.134;2023-07-29T03:53:43;2.03;;;1.83;;
6549;SDS011;15142;48.888;9.134;2023-07-29T03:56:11;7.00;;;2.50;;
6549;SDS011;15142;48.888;9.134;2023-07-29T03:58:40;5.30;;;1.90;;
6549;SDS011;15142;48.888;9.134;2023-07-29T04:01:09;2.40;;;2.20;;
6549;SDS011;15142;48.888;9.134;2023-07-29T04:03:40;3.17;;;2.23;;
6549;SDS011;15142;48.888;9.134;2023-07-29T04:06:09;3.80;;;2.60;;
6549;SDS011;15142;48.888;9.134;2023-07-29T04:08:37;3.70;;;1.90;;
6549;SDS011;15142;48.888;9.134;2023-07-29T04:11:07;4.47;;;2.80;;
6549;SDS011;15142;48.888;9.134;2023-07-29T04:13:35;3.40;;;1.93;;
6549;SDS011;15142;48.888;9.134;2023-07-29T04:16:06;3.43;;;2.47;;
6549;SDS011;15142;48.888;9.134;2023-07-29T04:18:34;3.07;;;2.77;;
6549;SDS011;15142;48.888;9.134;2023-07-29T04:21:06;2.70;;;2.30;;
6549;SDS011;15142;48.888;9.134;2023-07-29T04:23:35;4.00;;;2.50;;
6549;SDS011;15142;48.888;9.134;2023-07-29T04:26:04;4.67;;;2.80;;
6549;SDS011;15142;48.888;9.134;2023-07-29T04:28:33;5.63;;;2.73;;
6549;SDS011;15142;48.888;9.134;2023-07-29T04:31:01;2.40;;;2.27;;
6549;SDS011;15142;48.888;9.134;2023-07-29T04:33:31;4.30;;;2.30;;
6549;SDS011;15142;48.888;9.134;2023-07-29T04:36:00;4.27;;;2.43;;
6549;SDS011;15142;48.888;9.134;2023-07-29T04:38:32;9.73;;;2.80;;
6549;SDS011;15142;48.888;9.134;2023-07-29T04:41:01;7.33;;;3.30;;
6549;SDS011;15142;48.888;9.134;2023-07-29T04:43:32;5.13;;;2.67;;
6549;SDS011;15142;48.888;9.134;2023-07-29T04:46:01;4.30;;;3.20;;
6549;SDS011;15142;48.888;9.134;2023-07-29T04:48:30;4.33;;;2.80;;
6549;SDS011;15142;48.888;9.134;2023-07-29T04:50:58;5.27;;;2.50;;
6549;SDS011;15142;48.888;9.134;2023-07-29T04:53:27;6.30;;;3.07;;
6549;SDS011;15142;48.888;9.134;2023-07-29T04:55:58;9.63;;;3.00;;
6549;SDS011;15142;48.888;9.134;2023-07-29T04:58:26;8.77;;;3.10;;
6549;SDS011;15142;48.888;9.134;2023-07-29T05:00:57;14.20;;;3.37;;
6549;SDS011;15142;48.888;9.134;2023-07-29T05:03:26;4.70;;;2.90;;
6549;SDS011;15142;48.888;9.134;2023-07-29T05:05:54;10.07;;;4.67;;
6549;SDS011;15142;48.888;9.134;2023-07-29T05:08:24;5.10;;;2.30;;
6549;SDS011;15142;48.888;9.134;2023-07-29T05:10:53;19.70;;;3.27;;
6549;SDS011;15142;48.888;9.134;2023-07-29T05:13:25;4.63;;;2.97;;
6549;SDS011;15142;48.888;9.134;2023-07-29T05:15:54;4.80;;;2.90;;
6549;SDS011;15142;48.888;9.134;2023-07-29T05:18:23;8.23;;;3.50;;
6549;SDS011;15142;48.888;9.134;2023-07-29T05:20:51;6.70;;;3.30;;
6549;SDS011;15142;48.888;9.134;2023-07-29T05:23:21;10.93;;;4.17;;
6549;SDS011;15142;48.888;9.134;2023-07-29T05:25:50;4.50;;;2.70;;
6549;SDS011;15142;48.888;9.134;2023-07-29T05:28:19;3.70;;;3.27;;
6549;SDS011;15142;48.888;9.134;2023-07-29T05:30:50;9.90;;;3.10;;
6549;SDS011;15142;48.888;9.134;2023-07-29T05:33:18;3.80;;;2.70;;
6549;SDS011;15142;48.888;9.134;2023-07-29T05:35:48;3.57;;;2.30;;
6549;SDS011;15142;48.888;9.134;2023-07-29T05:38:18;9.70;;;3.43;;
6549;SDS011;15142;48.888;9.134;2023-07-29T05:40:47;5.77;;;2.87;;
6549;SDS011;15142;48.888;9.134;2023-07-29T05:43:16;5.43;;;3.13;;
6549;SDS011;15142;48.888;9.134;2023-07-29T05:45:45;2.97;;;2.63;;
6549;SDS011;15142;48.888;9.134;2023-07-29T05:48:16;7.63;;;3.60;;
6549;SDS011;15142;48.888;9.134;2023-07-29T05:50:45;3.40;;;2.90;;
6549;SDS011;15142;48.888;9.134;2023-07-29T05:53:14;4.10;;;2.43;;
6549;SDS011;15142;48.888;9.134;2023-07-29T05:55:43;3.77;;;2.87;;
6549;SDS011;15142;48.888;9.134;2023-07-29T05:58:12;4.70;;;3.27;;
6549;SDS011;15142;48.888;9.134;2023-07-29T06:00:41;6.73;;;3.00;;
6549;SDS011;15142;48.888;9.134;2023-07-29T06:03:10;4.70;;;3.10;;
6549;SDS011;15142;48.888;9.134;2023-07-29T06:05:41;2.93;;;2.40;;
6549;SDS011;15142;48.888;9.134;2023-07-29T06:08:10;4.00;;;2.60;;
6549;SDS011;15142;48.888;9.134;2023-07-29T06:10:38;4.33;;;2.50;;
6549;SDS011;15142;48.888;9.134;2023-07-29T06:13:07;5.17;;;2.40;;
6549;SDS011;15142;48.888;9.134;2023-07-29T06:15:36;2.00;;;1.77;;
6549;SDS011;15142;48.888;9.134;2023-07-29T06:18:04;2.67;;;2.27;;
6549;SDS011;15142;48.888;9.134;2023-07-29T06:20:33;4.27;;;2.60;;
6549;SDS011;15142;48.888;9.134;2023-07-29T06:23:04;2.70;;;2.50;;
6549;SDS011;15142;48.888;9.134;2023-07-29T06:25:33;3.60;;;2.10;;
6549;SDS011;15142;48.888;9.134;2023-07-29T06:28:02;3.23;;;1.50;;
6549;SDS011;15142;48.888;9.134;2023-07-29T06:30:30;2.33;;;1.70;;
6549;SDS011;15142;48.888;9.134;2023-07-29T06:32:59;1.77;;;1.67;;
6549;SDS011;15142;48.888;9.134;2023-07-29T06:35:28;1.83;;;1.73;;
6549;SDS011;15142;48.888;9.134;2023-07-29T06:37:57;1.80;;;1.70;;
6549;SDS011;15142;48.888;9.134;2023-07-29T06:40:28;5.23;;;1.60;;
6549;SDS011;15142;48.888;9.134;2023-07-29T06:42:56;1.93;;;1.83;;
6549;SDS011;15142;48.888;9.134;2023-07-29T06:45:25;8.50;;;2.27;;
6549;SDS011;15142;48.888;9.134;2023-07-29T06:47:54;5.68;;;1.77;;
6549;SDS011;15142;48.888;9.134;2023-07-29T06:50:22;2.93;;;1.90;;
6549;SDS011;15142;48.888;9.134;2023-07-29T06:52:51;2.77;;;2.57;;
6549;SDS011;15142;48.888;9.134;2023-07-29T06:55:19;4.93;;;1.77;;
6549;SDS011;15142;48.888;9.134;2023-07-29T06:57:50;1.90;;;1.80;;
6549;SDS011;15142;48.888;9.134;2023-07-29T07:00:19;2.43;;;2.23;;
6549;SDS011;15142;48.888;9.134;2023-07-29T07:02:47;9.10;;;1.60;;
6549;SDS011;15142;48.888;9.134;2023-07-29T07:05:16;3.60;;;1.37;;
6549;SDS011;15142;48.888;9.134;2023-07-29T07:07:45;1.83;;;1.73;;
6549;SDS011;15142;48.888;9.134;2023-07-29T07:10:14;5.90;;;1.80;;
6549;SDS011;15142;48.888;9.134;2023-07-29T07:12:42;3.33;;;2.10;;
6549;SDS011;15142;48.888;9.134;2023-07-29T07:15:13;3.30;;;1.87;;
6549;SDS011;15142;48.888;9.134;2023-07-29T07:17:42;1.93;;;1.43;;
6549;SDS011;15142;48.888;9.134;2023-07-29T07:20:11;3.20;;;2.00;;
6549;SDS011;15142;48.888;9.134;2023-07-29T07:22:39;1.60;;;1.50;;
6549;SDS011;15142;48.888;9.134;2023-07-29T07:25:08;1.90;;;1.73;;
6549;SDS011;15142;48.888;9.134;2023-07-29T07:27:37;1.50;;;1.40;;
6549;SDS011;15142;48.888;9.134;2023-07-29T07:30:06;1.70;;;1.60;;
6549;SDS011;15142;48.888;9.134;2023-07-29T07:32:38;3.70;;;1.50;;
6549;SDS011;15142;48.888;9.134;2023-07-29T07:35:07;1.30;;;1.20;;
6549;SDS011;15142;48.888;9.134;2023-07-29T07:37:35;1.87;;;1.60;;
6549;SDS011;15142;48.888;9.134;2023-07-29T07:40:05;1.90;;;1.77;;
6549;SDS011;15142;48.888;9.134;2023-07-29T07:42:35;1.00;;;1.00;;
6549;SDS011;15142;48.888;9.134;2023-07-29T07:45:04;9.27;;;1.70;;
6549;SDS011;15142;48.888;9.134;2023-07-29T07:47:33;1.90;;;1.80;;
6549;SDS011;15142;48.888;9.134;2023-07-29T07:50:04;3.73;;;1.80;;
6549;SDS011;15142;48.888;9.134;2023-07-29T07:52:33;3.47;;;1.80;;
6549;SDS011;15142;48.888;9.134;2023-07-29T07:55:02;3.50;;;1.77;;
6549;SDS011;15142;48.888;9.134;2023-07-29T07:57:31;1.70;;;1.60;;
6549;SDS011;15142;48.888;9.134;2023-07-29T07:59:59;2.20;;;1.73;;
6549;SDS011;15142;48.888;9.134;2023-07-29T08:02:38;1.53;;;1.43;;
6549;SDS011;15142;48.888;9.134;2023-07-29T08:05:09;7.63;;;1.83;;
6549;SDS011;15142;48.888;9.134;2023-07-29T08:07:38;1.90;;;1.80;;
6549;SDS011;15142;48.888;9.134;2023-07-29T08:10:07;1.13;;;1.13;;
6549;SDS011;15142;48.888;9.134;2023-07-29T08:12:36;2.40;;;1.67;;
6549;SDS011;15142;48.888;9.134;2023-07-29T08:15:05;4.00;;;1.67;;
6549;SDS011;15142;48.888;9.134;2023-07-29T08:17:34;1.37;;;1.33;;
6549;SDS011;15142;48.888;9.134;2023-07-29T08:20:03;1.27;;;1.17;;
6549;SDS011;15142;48.888;9.134;2023-07-29T08:22:35;1.30;;;1.27;;
6549;SDS011;15142;48.888;9.134;2023-07-29T08:25:04;4.40;;;1.23;;
6549;SDS011;15142;48.888;9.134;2023-07-29T08:27:33;1.20;;;1.10;;
6549;SDS011;15142;48.888;9.134;2023-07-29T08:30:03;2.23;;;1.20;;
6549;SDS011;15142;48.888;9.134;2023-07-29T08:32:32;1.80;;;1.10;;
6549;SDS011;15142;48.888;9.134;2023-07-29T08:35:01;1.20;;;1.10;;
6549;SDS011;15142;48.888;9.134;2023-07-29T08:37:29;0.83;;;0.83;;
6549;SDS011;15142;48.888;9.134;2023-07-29T08:40:01;2.40;;;0.90;;
6549;SDS011;15142;48.888;9.134;2023-07-29T08:42:31;1.60;;;1.00;;
6549;SDS011;15142;48.888;9.134;2023-07-29T08:45:01;1.13;;;1.13;;
6549;SDS011;15142;48.888;9.134;2023-07-29T08:47:36;1.10;;;1.10;;
6549;SDS011;15142;48.888;9.134;2023-07-29T08:50:05;0.87;;;0.87;;
6549;SDS011;15142;48.888;9.134;2023-07-29T08:52:36;4.53;;;1.03;;
6549;SDS011;15142;48.888;9.134;2023-07-29T08:55:08;5.53;;;1.10;;
6549;SDS011;15142;48.888;9.134;2023-07-29T08:57:36;1.57;;;1.10;;
6549;SDS011;15142;48.888;9.134;2023-07-29T09:00:06;1.53;;;1.20;;
6549;SDS011;15142;48.888;9.134;2023-07-29T09:02:36;0.80;;;0.80;;
6549;SDS011;15142;48.888;9.134;2023-07-29T09:05:05;2.03;;;1.40;;
6549;SDS011;15142;48.888;9.134;2023-07-29T09:07:34;2.03;;;0.93;;
6549;SDS011;15142;48.888;9.134;2023-07-29T09:10:04;0.97;;;0.90;;
6549;SDS011;15142;48.888;9.134;2023-07-29T09:12:37;0.60;;;0.60;;
6549;SDS011;15142;48.888;9.134;2023-07-29T09:15:06;1.07;;;0.97;;
6549;SDS011;15142;48.888;9.134;2023-07-29T09:17:35;1.00;;;1.00;;
6549;SDS011;15142;48.888;9.134;2023-07-29T09:20:04;1.00;;;0.93;;
6549;SDS011;15142;48.888;9.134;2023-07-29T09:22:34;1.30;;;1.20;;
6549;SDS011;15142;48.888;9.134;2023-07-29T09:25:03;1.03;;;1.00;;
6549;SDS011;15142;48.888;9.134;2023-07-29T09:27:35;3.87;;;1.47;;
6549;SDS011;15142;48.888;9.134;2023-07-29T09:30:05;0.70;;;0.70;;
6549;SDS011;15142;48.888;9.134;2023-07-29T09:32:43;1.80;;;1.20;;
6549;SDS011;15142;48.888;9.134;2023-07-29T09:35:12;1.33;;;0.80;;
6549;SDS011;15142;48.888;9.134;2023-07-29T09:37:41;8.73;;;1.17;;
6549;SDS011;15142;48.888;9.134;2023-07-29T09:40:13;1.20;;;1.03;;
6549;SDS011;15142;48.888;9.134;2023-07-29T09:42:50;1.47;;;0.90;;
6549;SDS011;15142;48.888;9.134;2023-07-29T09:45:20;1.33;;;1.20;;
6549;SDS011;15142;48.888;9.134;2023-07-29T09:47:49;0.83;;;0.83;;
6549;SDS011;15142;48.888;9.134;2023-07-29T09:50:20;1.70;;;1.43;;
6549;SDS011;15142;48.888;9.134;2023-07-29T09:52:51;1.23;;;1.23;;
6549;SDS011;15142;48.888;9.134;2023-07-29T09:55:22;5.20;;;1.40;;
6549;SDS011;15142;48.888;9.134;2023-07-29T09:58:02;6.37;;;2.50;;
6549;SDS011;15142;48.888;9.134;2023-07-29T10:00:33;1.50;;;1.40;;
6549;SDS011;15142;48.888;9.134;2023-07-29T10:03:03;13.07;;;2.07;;
6549;SDS011;15142;48.888;9.134;2023-07-29T10:05:33;8.83;;;2.10;;
6549;SDS011;15142;48.888;9.134;2023-07-29T10:08:01;1.63;;;1.53;;
6549;SDS011;15142;48.888;9.134;2023-07-29T10:10:31;3.07;;;1.90;;
6549;SDS011;15142;48.888;9.134;2023-07-29T10:13:02;1.37;;;1.27;;
6549;SDS011;15142;48.888;9.134;2023-07-29T10:15:31;4.47;;;1.53;;
6549;SDS011;15142;48.888;9.134;2023-07-29T10:18:01;1.93;;;1.53;;
6549;SDS011;15142;48.888;9.134;2023-07-29T10:20:30;2.40;;;1.70;;
6549;SDS011;15142;48.888;9.134;2023-07-29T10:23:00;1.47;;;1.40;;
6549;SDS011;15142;48.888;9.134;2023-07-29T10:25:32;1.40;;;1.30;;
6549;SDS011;15142;48.888;9.134;2023-07-29T10:28:10;1.60;;;1.50;;
6549;SDS011;15142;48.888;9.134;2023-07-29T10:30:40;1.50;;;1.47;;
6549;SDS011;15142;48.888;9.134;2023-07-29T10:33:09;1.60;;;1.50;;
6549;SDS011;15142;48.888;9.134;2023-07-29T10:35:38;2.90;;;1.50;;
6549;SDS011;15142;48.888;9.134;2023-07-29T10:38:08;0.87;;;0.87;;
6549;SDS011;15142;48.888;9.134;2023-07-29T10:40:46;2.30;;;1.13;;
6549;SDS011;15142;48.888;9.134;2023-07-29T10:43:24;2.77;;;0.97;;
6549;SDS011;15142;48.888;9.134;2023-07-29T10:45:55;0.80;;;0.80;;
6549;SDS011;15142;48.888;9.134;2023-07-29T10:48:43;1.50;;;1.13;;
6549;SDS011;15142;48.888;9.134;2023-07-29T10:51:24;2.37;;;0.87;;
6549;SDS011;15142;48.888;9.134;2023-07-29T10:53:55;1.13;;;1.10;;
6549;SDS011;15142;48.888;9.134;2023-07-29T10:56:24;1.43;;;1.33;;
6549;SDS011;15142;48.888;9.134;2023-07-29T10:58:59;5.80;;;0.93;;
6549;SDS011;15142;48.888;9.134;2023-07-29T11:01:30;3.03;;;1.77;;
6549;SDS011;15142;48.888;9.134;2023-07-29T11:09:56;0.53;;;0.53;;
6549;SDS011;15142;48.888;9.134;2023-07-29T11:12:39;2.00;;;0.80;;
6549;SDS011;15142;48.888;9.134;2023-07-29T11:15:23;1.43;;;0.80;;
6549;SDS011;15142;48.888;9.134;2023-07-29T11:17:52;0.70;;;0.70;;
6549;SDS011;15142;48.888;9.134;2023-07-29T11:20:23;1.00;;;0.60;;
6549;SDS011;15142;48.888;9.134;2023-07-29T11:22:53;1.07;;;0.70;;
6549;SDS011;15142;48.888;9.134;2023-07-29T11:25:23;0.53;;;0.50;;
6549;SDS011;15142;48.888;9.134;2023-07-29T11:27:52;0.70;;;0.70;;
6549;SDS011;15142;48.888;9.134;2023-07-29T11:30:25;1.07;;;1.07;;
6549;SDS011;15142;48.888;9.134;2023-07-29T11:32:55;0.97;;;0.87;;
6549;SDS011;15142;48.888;9.134;2023-07-29T11:35:23;2.33;;;0.50;;
6549;SDS011;15142;48.888;9.134;2023-07-29T11:37:54;1.13;;;1.10;;
6549;SDS011;15142;48.888;9.134;2023-07-29T11:40:23;0.93;;;0.93;;
6549;SDS011;15142;48.888;9.134;2023-07-29T11:42:52;1.70;;;0.80;;
6549;SDS011;15142;48.888;9.134;2023-07-29T11:45:21;1.20;;;0.90;;
6549;SDS011;15142;48.888;9.134;2023-07-29T11:47:53;0.80;;;0.80;;
6549;SDS011;15142;48.888;9.134;2023-07-29T11:50:22;0.97;;;0.97;;
6549;SDS011;15142;48.888;9.134;2023-07-29T11:52:51;5.93;;;1.10;;
6549;SDS011;15142;48.888;9.134;2023-07-29T11:55:20;1.17;;;0.93;;
6549;SDS011;15142;48.888;9.134;2023-07-29T11:57:51;0.97;;;0.97;;
6549;SDS011;15142;48.888;9.134;2023-07-29T12:00:20;2.00;;;1.30;;
6549;SDS011;15142;48.888;9.134;2023-07-29T12:02:49;6.33;;;1.00;;
6549;SDS011;15142;48.888;9.134;2023-07-29T12:05:21;1.47;;;1.40;;
6549;SDS011;15142;48.888;9.134;2023-07-29T12:07:51;5.40;;;1.17;;
6549;SDS011;15142;48.888;9.134;2023-07-29T12:10:19;1.40;;;0.90;;
6549;SDS011;15142;48.888;9.134;2023-07-29T12:12:49;0.80;;;0.80;;
6549;SDS011;15142;48.888;9.134;2023-07-29T12:15:25;2.60;;;1.00;;
6549;SDS011;15142;48.888;9.134;2023-07-29T12:17:54;1.23;;;1.13;;
6549;SDS011;15142;48.888;9.134;2023-07-29T12:20:29;2.40;;;1.57;;
6549;SDS011;15142;48.888;9.134;2023-07-29T12:22:59;1.60;;;1.17;;
6549;SDS011;15142;48.888;9.134;2023-07-29T12:25:31;1.50;;;1.40;;
6549;SDS011;15142;48.888;9.134;2023-07-29T12:28:03;1.77;;;1.67;;
6549;SDS011;15142;48.888;9.134;2023-07-29T12:30:32;1.10;;;1.10;;
6549;SDS011;15142;48.888;9.134;2023-07-29T12:33:01;1.90;;;1.80;;
6549;SDS011;15142;48.888;9.134;2023-07-29T12:35:38;1.37;;;1.33;;
6549;SDS011;15142;48.888;9.134;2023-07-29T12:38:06;1.80;;;1.30;;
6549;SDS011;15142;48.888;9.134;2023-07-29T12:40:37;1.30;;;1.20;;
6549;SDS011;15142;48.888;9.134;2023-07-29T12:43:07;1.10;;;1.10;;
6549;SDS011;15142;48.888;9.134;2023-07-29T12:45:36;2.20;;;1.67;;
6549;SDS011;15142;48.888;9.134;2023-07-29T12:48:06;2.70;;;1.27;;
6549;SDS011;15142;48.888;9.134;2023-07-29T12:50:38;1.43;;;1.43;;
6549;SDS011;15142;48.888;9.134;2023-07-29T12:53:07;2.83;;;2.63;;
6549;SDS011;15142;48.888;9.134;2023-07-29T12:55:37;2.43;;;2.20;;
6549;SDS011;15142;48.888;9.134;2023-07-29T12:58:05;1.40;;;1.37;;
6549;SDS011;15142;48.888;9.134;2023-07-29T13:00:34;1.70;;;1.60;;
6549;SDS011;15142;48.888;9.134;2023-07-29T13:03:03;1.40;;;1.30;;
6549;SDS011;15142;48.888;9.134;2023-07-29T13:05:32;1.40;;;1.30;;
6549;SDS011;15142;48.888;9.134;2023-07-29T13:08:04;3.53;;;1.20;;
6549;SDS011;15142;48.888;9.134;2023-07-29T13:10:32;4.53;;;1.60;;
6549;SDS011;15142;48.888;9.134;2023-07-29T13:13:01;1.87;;;1.40;;
6549;SDS011;15142;48.888;9.134;2023-07-29T13:15:29;1.97;;;1.03;;
6549;SDS011;15142;48.888;9.134;2023-07-29T13:17:57;1.27;;;1.07;;
6549;SDS011;15142;48.888;9.134;2023-07-29T13:20:26;1.30;;;0.93;;
6549;SDS011;15142;48.888;9.134;2023-07-29T13:22:55;2.80;;;1.57;;
6549;SDS011;15142;48.888;9.134;2023-07-29T13:25:26;1.10;;;1.10;;
6549;SDS011;15142;48.888;9.134;2023-07-29T13:27:55;1.80;;;1.70;;
6549;SDS011;15142;48.888;9.134;2023-07-29T13:30:24;8.40;;;1.67;;
6549;SDS011;15142;48.888;9.134;2023-07-29T13:32:53;1.40;;;1.30;;
6549;SDS011;15142;48.888;9.134;2023-07-29T13:35:21;0.90;;;0.90;;
6549;SDS011;15142;48.888;9.134;2023-07-29T13:37:50;2.57;;;1.20;;
6549;SDS011;15142;48.888;9.134;2023-07-29T13:40:18;1.83;;;1.73;;
6549;SDS011;15142;48.888;9.134;2023-07-29T13:42:49;1.30;;;1.20;;
6549;SDS011;15142;48.888;9.134;2023-07-29T13:45:18;1.13;;;1.13;;
6549;SDS011;15142;48.888;9.134;2023-07-29T13:47:47;2.20;;;1.60;;
6549;SDS011;15142;48.888;9.134;2023-07-29T13:50:15;1.93;;;1.83;;
6549;SDS011;15142;48.888;9.134;2023-07-29T13:52:44;1.50;;;1.40;;
6549;SDS011;15142;48.888;9.134;2023-07-29T13:55:13;1.27;;;1.20;;
6549;SDS011;15142;48.888;9.134;2023-07-29T13:57:42;1.57;;;1.47;;
6549;SDS011;15142;48.888;9.134;2023-07-29T14:00:13;3.23;;;1.40;;
6549;SDS011;15142;48.888;9.134;2023-07-29T14:02:42;1.53;;;1.43;;
6549;SDS011;15142;48.888;9.134;2023-07-29T14:05:10;1.83;;;1.63;;
6549;SDS011;15142;48.888;9.134;2023-07-29T14:07:39;6.43;;;1.63;;
6549;SDS011;15142;48.888;9.134;2023-07-29T14:10:08;4.73;;;1.40;;
6549;SDS011;15142;48.888;9.134;2023-07-29T14:12:37;1.57;;;1.30;;
6549;SDS011;15142;48.888;9.134;2023-07-29T14:15:06;1.33;;;1.33;;
6549;SDS011;15142;48.888;9.134;2023-07-29T14:17:38;1.60;;;1.50;;
6549;SDS011;15142;48.888;9.134;2023-07-29T14:20:07;1.43;;;1.33;;
6549;SDS011;15142;48.888;9.134;2023-07-29T14:22:37;1.03;;;1.03;;
6549;SDS011;15142;48.888;9.134;2023-07-29T14:25:06;3.10;;;1.87;;
6549;SDS011;15142;48.888;9.134;2023-07-29T14:27:35;7.50;;;1.43;;
6549;SDS011;15142;48.888;9.134;2023-07-29T14:30:04;2.70;;;1.67;;
6549;SDS011;15142;48.888;9.134;2023-07-29T14:32:34;1.53;;;1.43;;
6549;SDS011;15142;48.888;9.134;2023-07-29T14:35:06;1.53;;;1.43;;
6549;SDS011;15142;48.888;9.134;2023-07-29T14:37:35;1.57;;;1.47;;
6549;SDS011;15142;48.888;9.134;2023-07-29T14:40:04;2.40;;;1.80;;
6549;SDS011;15142;48.888;9.134;2023-07-29T14:42:34;1.00;;;0.97;;
6549;SDS011;15142;48.888;9.134;2023-07-29T14:45:03;1.67;;;1.30;;
6549;SDS011;15142;48.888;9.134;2023-07-29T14:47:32;2.97;;;1.30;;
6549;SDS011;15142;48.888;9.134;2023-07-29T14:50:01;1.23;;;1.13;;
6549;SDS011;15142;48.888;9.134;2023-07-29T14:52:32;0.90;;;0.90;;
6549;SDS011;15142;48.888;9.134;2023-07-29T14:55:01;1.70;;;1.20;;
6549;SDS011;15142;48.888;9.134;2023-07-29T14:57:29;2.07;;;1.77;;
6549;SDS011;15142;48.888;9.134;2023-07-29T14:59:58;1.07;;;1.03;;
6549;SDS011;15142;48.888;9.134;2023-07-29T15:02:26;1.00;;;0.97;;
6549;SDS011;15142;48.888;9.134;2023-07-29T15:04:55;7.10;;;1.97;;
6549;SDS011;15142;48.888;9.134;2023-07-29T15:07:24;1.70;;;1.60;;
6549;SDS011;15142;48.888;9.134;2023-07-29T15:09:55;1.37;;;1.37;;
6549;SDS011;15142;48.888;9.134;2023-07-29T15:12:24;4.27;;;1.47;;
6549;SDS011;15142;48.888;9.134;2023-07-29T15:14:52;1.50;;;1.40;;
6549;SDS011;15142;48.888;9.134;2023-07-29T15:17:20;1.50;;;1.40;;
6549;SDS011;15142;48.888;9.134;2023-07-29T15:19:49;1.30;;;1.20;;
6549;SDS011;15142;48.888;9.134;2023-07-29T15:22:18;1.43;;;1.33;;